• Join FlightAware (Why Join?)
  • Login
  • US Flag 
12:48AM EDT


 

Airport Tracker/Info


-or-


 

Live Flight TrackerFlight Track Log ✈ N700YN ✈ 29-Oct-2013 ✈ KFCM - 4G4

Flight Track Log - Related Links

Times and Time Zones

All times are in EDT time to prevent confusion due to time zone crossing. See the N700YN flight status page for this flight to view local times or setup timezone preferences in your user account.

Time Position Orientation Groundspeed Altitude Reporting Facility
EDT Latitude Longitude Course Direction KTS MPH feet Rate Location/Type
12:57PM 44.8000 -93.4167 200° South 125 144 2,500  Level Minneapolis TRACON
12:58PM 44.7667 -93.4333 200° South 128 147 3,000 300 Climbing Minneapolis TRACON
12:59PM 44.7350 -93.4200 163° South 154 177 3,100  Climbing Minneapolis Center
01:00PM 44.7150 -93.3492 112° Southeast 199 229 3,000 600 Descending Minneapolis Center
01:01PM 44.6947 -93.2644 109° East 192 221 4,400 1,320 Climbing Minneapolis Center
01:02PM 44.6839 -93.2039 104° East 167 192 5,800 1,200 Climbing Minneapolis Center
01:03PM 44.6714 -93.1397 105° East 172 198 6,900 1,140 Climbing Minneapolis Center
01:04PM 44.6647 -93.0664 97° East 191 220 8,200 1,200 Climbing Minneapolis Center
01:05PM 44.6533 -92.9756 100° East 198 228 9,400 1,140 Climbing Minneapolis Center
01:06PM 44.6419 -92.8928 101° East 213 245 10,600 1,140 Climbing Minneapolis Center
01:07PM 44.6267 -92.8153 105° East 209 241 11,800 1,140 Climbing Minneapolis Center
01:08PM 44.5997 -92.7408 117° Southeast 212 244 13,000 1,020 Climbing Minneapolis Center
01:09PM 44.5750 -92.6639 114° Southeast 218 251 14,000 1,080 Climbing Minneapolis Center
01:10PM 44.5433 -92.5711 116° Southeast 221 254 15,300 1,140 Climbing Minneapolis Center
01:11PM 44.5153 -92.4931 117° Southeast 225 259 16,400 960 Climbing Minneapolis Center
01:12PM 44.4897 -92.4142 114° Southeast 223 257 17,300 840 Climbing Minneapolis Center
01:13PM 44.4636 -92.3319 114° Southeast 231 266 18,200 840 Climbing Minneapolis Center
01:14PM 44.4350 -92.2506 116° Southeast 235 270 19,100 960 Climbing Minneapolis Center
01:15PM 44.4058 -92.1622 115° Southeast 246 283 20,200 1,080 Climbing Minneapolis Center
01:16PM 44.3697 -92.0567 116° Southeast 252 290 21,400 960 Climbing Minneapolis Center
01:17PM 44.3375 -91.9658 116° Southeast 259 298 22,200 780 Climbing Minneapolis Center
01:18PM 44.3039 -91.8703 116° Southeast 269 310 23,100 840 Climbing Minneapolis Center
01:19PM 44.2714 -91.7733 115° Southeast 274 315 24,000 720 Climbing Minneapolis Center
01:20PM 44.2367 -91.6728 116° Southeast 284 327 24,700 660 Climbing Minneapolis Center
01:21PM 44.2017 -91.5711 116° Southeast 290 334 25,400 780 Climbing Minneapolis Center
01:22PM 44.1572 -91.4472 117° Southeast 296 341 26,400 720 Climbing Minneapolis Center
01:24PM 44.1217 -91.3447 116° Southeast 296 341 27,000 240 Climbing Minneapolis Center
01:25PM 44.0869 -91.2453 116° Southeast 302 348 27,000  Level Minneapolis Center
01:26PM 44.0475 -91.1325 116° Southeast 318 366 27,000  Level Minneapolis Center
01:27PM 43.9972 -90.9914 116° Southeast 335 386 27,000  Level Minneapolis Center
01:28PM 43.9550 -90.8703 116° Southeast 348 400 27,000  Level Minneapolis Center
01:29PM 43.9128 -90.7519 116° Southeast 344 396 27,000  Level Minneapolis Center
01:30PM 43.8706 -90.6339 116° Southeast 343 395 27,000  Level Minneapolis Center
01:30PM 43.8444 -90.5669 118° Southeast 343 395 27,000  Level Chicago Center
01:31PM 43.8017 -90.4497 117° Southeast 343 395 27,000  Level Chicago Center
01:32PM 43.7508 -90.3081 116° Southeast 344 396 27,000  Level Chicago Center
01:33PM 43.7081 -90.1900 117° Southeast 345 397 27,000  Level Chicago Center
01:34PM 43.6642 -90.0714 117° Southeast 348 400 27,000  Level Chicago Center
01:36PM 43.6211 -89.9528 117° Southeast 348 400 27,000  Level Chicago Center
01:37PM 43.5769 -89.8347 117° Southeast 348 400 27,000  Level Chicago Center
01:38PM 43.5372 -89.6858 110° East 354 407 27,000  Level Chicago Center
01:39PM 43.5181 -89.5536 101° East 354 407 27,000  Level Chicago Center
01:40PM 43.4992 -89.4233 101° East 352 405 27,000  Level Chicago Center
01:41PM 43.4794 -89.2914 102° East 352 405 27,000  Level Chicago Center
01:42PM 43.4550 -89.1586 104° East 356 410 27,000  Level Chicago Center
01:43PM 43.4253 -88.9953 104° East 365 420 27,000  Level Chicago Center
01:44PM 43.4047 -88.8633 102° East 357 411 27,000  Level Chicago Center
01:45PM 43.3803 -88.7192 103° East 359 413 27,000  Level Chicago Center
01:46PM 43.3572 -88.5864 103° East 359 413 27,000  Level Chicago Center
01:47PM 43.3361 -88.4597 103° East 362 417 27,000  Level Chicago Center
01:48PM 43.3133 -88.3272 103° East 360 414 27,000  Level Chicago Center
01:49PM 43.2850 -88.1689 104° East 357 411 27,000  Level Chicago Center
01:50PM 43.2628 -88.0356 103° East 360 414 27,000  Level Chicago Center
01:51PM 43.2400 -87.9036 103° East 359 413 27,000  Level Chicago Center
01:52PM 43.2156 -87.7711 104° East 359 413 27,000  Level Chicago Center
01:53PM 43.1925 -87.6386 103° East 360 414 27,000  Level Chicago Center
01:54PM 43.1689 -87.5047 104° East 362 417 27,000  Level Chicago Center
01:55PM 43.1392 -87.3450 104° East 362 417 27,000  Level Chicago Center
01:56PM 43.1156 -87.2136 104° East 358 412 27,000  Level Chicago Center
01:57PM 43.0922 -87.0806 103° East 362 417 27,000  Level Chicago Center
01:58PM 43.0667 -86.9481 105° East 362 417 27,000  Level Chicago Center
01:59PM 43.0419 -86.8144 104° East 362 417 27,000  Level Chicago Center
02:00PM 43.0128 -86.6558 104° East 360 414 27,000  Level Chicago Center
02:01PM 42.9872 -86.5244 105° East 361 415 27,000  Level Chicago Center
02:02PM 42.9622 -86.3922 104° East 362 417 27,000  Level Chicago Center
02:03PM 42.9369 -86.2603 105° East 362 417 27,000  Level Chicago Center
02:05PM 42.9114 -86.1286 105° East 364 419 27,000  Level Chicago Center
02:06PM 42.8806 -85.9711 105° East 366 421 27,000  Level Chicago Center
02:07PM 42.8547 -85.8383 105° East 368 423 27,000  Level Chicago Center
02:08PM 42.8289 -85.7053 105° East 368 423 27,000  Level Chicago Center
02:09PM 42.8019 -85.5717 105° East 367 422 27,000  Level Chicago Center
02:10PM 42.7567 -85.4175 112° Southeast 366 421 27,000  Level Chicago Center
02:11PM 42.7061 -85.2967 120° Southeast 368 423 27,000  Level Chicago Center
02:12PM 42.6569 -85.1767 119° Southeast 365 420 27,000  Level Chicago Center
02:13PM 42.6078 -85.0550 119° Southeast 367 422 27,000  Level Chicago Center
02:14PM 42.5572 -84.9339 120° Southeast 368 423 27,000  Level Chicago Center
02:15PM 42.5078 -84.8125 119° Southeast 367 422 27,000  Level Chicago Center
02:16PM 42.4472 -84.6678 120° Southeast 368 423 27,000  Level Chicago Center
02:17PM 42.3969 -84.5472 119° Southeast 369 425 27,000  Level Chicago Center
02:18PM 42.3478 -84.4278 119° Southeast 367 422 27,000  Level Chicago Center
02:19PM 42.2978 -84.3083 119° Southeast 366 421 27,000  Level Chicago Center
02:20PM 42.2469 -84.1892 120° Southeast 367 422 27,000  Level Chicago Center
02:21PM 42.1958 -84.0708 120° Southeast 367 422 27,000 -240 Level Chicago Center
02:22PM 42.1356 -83.9269 119° Southeast 369 425 26,600 -660 Descending Chicago Center
02:23PM 42.0819 -83.8075 121° Southeast 374 430 25,700 -960 Descending Chicago Center
02:24PM 42.0331 -83.6906 119° Southeast 364 419 24,700 -720 Descending Chicago Center
02:26PM 41.9664 -83.5367 120° Southeast 342 394 24,000 -360 Descending Cleveland Center
02:27PM 41.9206 -83.4339 121° Southeast 322 371 23,900 -540 Descending Cleveland Center
02:28PM 41.8744 -83.3250 120° Southeast 328 377 22,900 -960 Descending Cleveland Center
02:29PM 41.8278 -83.2181 120° Southeast 335 386 22,000 -900 Descending Cleveland Center
02:30PM 41.7697 -83.0858 120° Southeast 342 394 21,100 -540 Descending Cleveland Center
02:31PM 41.7256 -82.9822 120° Southeast 324 373 21,000 -60 Descending Cleveland Center
02:32PM 41.6831 -82.8881 121° Southeast 302 348 21,000  Level Cleveland Center
02:33PM 41.6408 -82.7900 120° Southeast 300 345 21,000  Level Cleveland Center
02:34PM 41.5961 -82.6936 122° Southeast 302 348 21,000  Level Cleveland Center
02:35PM 41.5525 -82.5933 120° Southeast 308 354 21,000  Level Cleveland Center
02:36PM 41.4992 -82.4756 121° Southeast 314 361 21,000  Level Cleveland Center
02:37PM 41.4536 -82.3728 121° Southeast 318 366 21,000 -240 Level Cleveland Center
02:38PM 41.4083 -82.2714 121° Southeast 318 366 20,600 -720 Descending Cleveland Center
02:39PM 41.3600 -82.1661 121° Southeast 328 377 19,600 -1,080 Descending Cleveland Center
02:40PM 41.3272 -82.0422 109° East 340 391 18,400 -1,020 Descending Cleveland Center
02:41PM 41.2961 -81.9261 110° East 334 384 17,500 -1,020 Descending Cleveland Center
02:42PM 41.2667 -81.8114 109° East 330 380 16,300 -1,200 Descending Cleveland Center
02:43PM 41.2367 -81.6994 110° East 323 372 15,100 -1,260 Descending Cleveland Center
02:44PM 41.2022 -81.5681 109° East 315 362 13,700 -1,020 Descending Cleveland Center
02:45PM 41.1736 -81.4614 110° East 309 356 13,000 -840 Descending Cleveland Center
02:46PM 41.1486 -81.3686 110° East 295 339 12,000 -1,200 Descending Cleveland Center
02:47PM 41.1156 -81.2450 110° East 302 348 10,600 -1,320 Descending Cleveland Center
02:48PM 41.0878 -81.1450 110° East 289 333 9,300 -780 Descending Cleveland Center
02:49PM 41.0656 -81.0600 109° East 247 284 9,000 -840 Descending Cleveland Center
02:50PM 41.0425 -80.9725 109° East 233 268 7,600 -1,140 Descending Cleveland Center
02:51PM 41.0228 -80.9008 110° East 235 270 6,700 660 Descending Cleveland Center
02:52PM 40.8644 -80.8306 161° South 430 495 9,000 1,080 Climbing Cleveland Center
02:54PM 40.3486 -80.8178 179° South 751 864 9,000  Level Cleveland Center